Pagina principale
METAR-TAF:

METAR-TAF

Aeroporti :

Nouakchott, Mauritania

Aeroporto Internazionale di Nouakchott

latitudine: 18-18-36N, longitudine: 015-58-11W, altezza: 3 m

Osservazione

Il bollettino è stato emesso 26 minuti fa, alle 23:30 UTC
Vento 9 kt da sud/sud-ovest
Temperature 17°C
Umidità 88%
Pressione 1011 hPa
Visibilità 10 km o più
nessuna nube inferiore a 1500 m e nessun cumulonembo

METAR: GQNO 232330Z 21009KT CAVOK 17/15 Q1011 NOSIG

Ora: 23:56 (23:56 UTC)

Previsione

Il bollettino è stato emesso 56 minuti fa, alle 23:00 UTC
Previsione valida dal 24 alle 00 UTC al 25 alle 06 UTC
Vento 10 kt da ovest/sud-ovest
Visibilità: 8000 m
Evoluzione graduale
dal 24 alle 04 UTC al 24 alle 07 UTC
Nuvoloso ad un'altezza di 800 ft
Evoluzione graduale
dal 24 alle 09 UTC al 24 alle 11 UTC

TAF: GQNO 232300Z 2400/2506 24010KT 8000 NSC BECMG 2404/2407 BKN008 BECMG 2409/2411 NSC

Osservazioni e previsioni meteorologiche di più di 4000 aeroporti (messaggi METAR e TAF).

Le stazioni disponibili sono rappresentate dai dischi gialli e rossi sulla carta.

Puntare il mouse per vedere il nome della stazione.

Clicca sopra per visualizzare le osservazioni e previsioni meteorologiche.

Per cambiare la mappa : fare clic sui pulsanti verdi con una croce nera per ingrandire, il pulsante verde con un trattino per diminuire, o sulla freccia verde per le mappe adiacenti.


METAR-TAF: